createdAt,value
2022-12-08T00:02:00.031Z,7.00
2022-12-08T00:05:28.277Z,6.50
2022-12-08T00:08:55.239Z,5.88
2022-12-08T00:12:09.895Z,6.78
2022-12-08T00:15:22.099Z,6.38
2022-12-08T00:18:34.143Z,7.45
2022-12-08T00:21:45.998Z,5.98
2022-12-08T00:24:57.804Z,5.15
2022-12-08T00:28:09.947Z,6.38
2022-12-08T00:31:21.720Z,8.00
2022-12-08T00:34:34.731Z,5.55
2022-12-08T00:37:46.525Z,5.93
2022-12-08T00:40:58.296Z,4.95
2022-12-08T00:44:10.440Z,6.10
2022-12-08T00:47:24.880Z,5.48
2022-12-08T00:50:37.714Z,5.35
2022-12-08T00:53:50.101Z,6.33
2022-12-08T00:57:02.009Z,5.93
2022-12-08T01:00:17.190Z,6.35
2022-12-08T01:03:29.094Z,4.55
2022-12-08T01:06:44.323Z,4.70
2022-12-08T01:09:57.753Z,5.43
2022-12-08T01:13:09.745Z,7.30
2022-12-08T01:16:29.956Z,6.25
2022-12-08T01:19:43.391Z,5.43
2022-12-08T01:22:55.190Z,6.35
2022-12-08T01:26:12.555Z,5.58
2022-12-08T01:29:24.452Z,5.48
2022-12-08T01:32:36.182Z,6.75
2022-12-08T01:35:47.957Z,5.18
2022-12-08T01:39:03.208Z,4.63
2022-12-08T01:42:25.305Z,5.50
2022-12-08T01:45:38.526Z,4.43
2022-12-08T01:48:50.632Z,4.88
2022-12-08T01:52:07.549Z,6.53
2022-12-08T01:55:25.157Z,5.50
2022-12-08T01:58:42.040Z,6.13
2022-12-08T02:01:54.018Z,6.05
2022-12-08T02:05:09.686Z,6.08
2022-12-08T02:08:22.268Z,5.58
2022-12-08T02:11:34.187Z,7.53
2022-12-08T02:14:48.078Z,6.40
2022-12-08T02:18:08.877Z,5.53
2022-12-08T02:21:26.394Z,6.93
2022-12-08T02:24:43.182Z,8.35
2022-12-08T02:28:03.213Z,6.33
2022-12-08T02:31:23.404Z,4.40
2022-12-08T02:34:40.535Z,6.43
2022-12-08T02:41:12.653Z,6.05
2022-12-08T02:44:31.987Z,5.18
2022-12-08T02:47:44.487Z,5.60
2022-12-08T02:50:56.274Z,6.78
2022-12-08T02:54:09.964Z,6.18
2022-12-08T02:57:30.325Z,6.78
2022-12-08T03:00:50.391Z,6.25
2022-12-08T03:04:10.380Z,5.23
2022-12-08T03:07:27.980Z,6.10
2022-12-08T03:10:45.451Z,8.48
2022-12-08T03:14:01.800Z,5.60
2022-12-08T03:17:14.653Z,4.78
2022-12-08T03:20:30.557Z,5.58
2022-12-08T03:23:45.022Z,6.55
2022-12-08T03:27:02.042Z,5.85
2022-12-08T03:30:17.342Z,5.88
2022-12-08T03:33:33.426Z,7.30
2022-12-08T03:36:45.658Z,5.90
2022-12-08T03:39:57.680Z,6.68
2022-12-08T03:43:09.773Z,6.95
2022-12-08T03:49:33.537Z,6.03
2022-12-08T03:52:45.336Z,6.90
2022-12-08T03:55:58.664Z,5.73
2022-12-08T03:59:12.093Z,6.43
2022-12-08T04:02:24.147Z,6.30
2022-12-08T04:05:36.048Z,7.10
2022-12-08T04:08:48.440Z,5.00
2022-12-08T04:12:00.160Z,5.55
2022-12-08T04:15:15.185Z,6.65
2022-12-08T04:18:27.287Z,6.20
2022-12-08T04:21:39.281Z,6.10
2022-12-08T04:24:51.038Z,7.65
2022-12-08T04:28:03.150Z,6.20
2022-12-08T04:31:15.510Z,6.25
2022-12-08T04:34:27.505Z,5.33
2022-12-08T04:37:39.345Z,6.25
2022-12-08T04:40:51.340Z,10.28
2022-12-08T04:44:03.293Z,6.28
2022-12-08T04:47:15.201Z,5.78
2022-12-08T04:50:27.703Z,6.28
2022-12-08T04:53:44.861Z,5.55
2022-12-08T04:56:53.605Z,5.83
2022-12-08T05:00:05.629Z,7.00
2022-12-08T05:03:23.833Z,7.30
2022-12-08T05:06:33.448Z,8.60
2022-12-08T05:09:45.374Z,7.23
2022-12-08T05:12:57.368Z,7.15
2022-12-08T05:16:15.715Z,7.00
2022-12-08T05:19:27.876Z,7.23
2022-12-08T05:22:39.972Z,7.55
2022-12-08T05:25:51.913Z,6.90
2022-12-08T05:29:04.027Z,7.90
2022-12-08T05:32:15.815Z,8.20
2022-12-08T05:35:27.634Z,6.25
2022-12-08T05:38:39.742Z,6.65
2022-12-08T05:41:51.475Z,5.25
2022-12-08T05:45:03.300Z,9.65
2022-12-08T05:48:15.261Z,6.75
2022-12-08T05:51:29.360Z,7.48
2022-12-08T05:54:41.502Z,9.08
2022-12-08T05:57:53.367Z,6.90
2022-12-08T06:01:05.266Z,6.85
2022-12-08T06:04:17.785Z,8.65
2022-12-08T06:07:29.676Z,7.50
2022-12-08T06:10:41.677Z,18.13
2022-12-08T06:13:54.087Z,12.63
2022-12-08T06:17:06.102Z,9.83
2022-12-08T06:20:19.077Z,12.10
2022-12-08T06:23:30.830Z,10.53
2022-12-08T06:26:43.534Z,8.45
2022-12-08T06:29:55.532Z,9.45
2022-12-08T06:33:07.422Z,11.05
2022-12-08T06:36:21.701Z,12.23
2022-12-08T06:39:33.935Z,14.98
2022-12-08T06:42:49.568Z,10.18
2022-12-08T06:46:02.228Z,9.05
2022-12-08T06:49:14.305Z,11.63
2022-12-08T06:52:26.124Z,11.30
2022-12-08T06:58:52.923Z,9.45
2022-12-08T07:02:05.235Z,9.60
2022-12-08T07:05:17.599Z,15.80
2022-12-08T07:08:29.685Z,11.28
2022-12-08T07:11:43.800Z,10.93
2022-12-08T07:14:55.645Z,15.65
2022-12-08T07:18:07.656Z,11.85
2022-12-08T07:21:21.602Z,10.00
2022-12-08T07:24:33.639Z,14.80
2022-12-08T07:27:45.316Z,10.73
2022-12-08T07:30:57.253Z,11.13
2022-12-08T07:34:09.220Z,13.55
2022-12-08T07:37:20.932Z,12.30
2022-12-08T07:40:32.878Z,14.15
2022-12-08T07:43:44.938Z,12.03
2022-12-08T07:46:56.781Z,13.05
2022-12-08T07:50:09.308Z,13.08
2022-12-08T07:53:21.147Z,12.23
2022-12-08T07:56:32.884Z,13.85
2022-12-08T07:59:45.227Z,10.18
2022-12-08T08:02:57.224Z,10.30
2022-12-08T08:06:12.523Z,14.40
2022-12-08T08:09:24.327Z,14.60
2022-12-08T08:12:36.248Z,14.68
2022-12-08T08:15:48.284Z,18.10
2022-12-08T08:19:00.891Z,12.53
2022-12-08T08:22:12.643Z,13.50
2022-12-08T08:25:26.951Z,8.63
2022-12-08T08:28:39.372Z,11.83
2022-12-08T08:31:51.060Z,9.73
2022-12-08T08:35:02.807Z,11.13
2022-12-08T08:38:14.602Z,8.78
2022-12-08T08:41:26.355Z,11.18
2022-12-08T08:44:38.944Z,10.50
2022-12-08T08:47:50.954Z,9.38
2022-12-08T08:51:06.139Z,35.75
2022-12-08T08:54:18.097Z,18.20
2022-12-08T08:57:30.165Z,16.10
2022-12-08T09:00:42.056Z,13.60
2022-12-08T09:03:54.650Z,13.63
2022-12-08T09:07:06.669Z,14.53
2022-12-08T09:10:19.280Z,19.10
2022-12-08T09:13:31.028Z,13.68
2022-12-08T09:16:43.083Z,18.38
2022-12-08T09:19:55.169Z,14.33
2022-12-08T09:23:07.035Z,16.53
2022-12-08T09:26:21.133Z,14.28
2022-12-08T09:29:36.138Z,15.45
2022-12-08T09:32:49.717Z,13.28
2022-12-08T09:36:01.680Z,18.95
2022-12-08T09:39:13.588Z,15.43
2022-12-08T09:42:31.380Z,12.58
2022-12-08T09:45:43.841Z,12.13
2022-12-08T09:49:01.396Z,14.65
2022-12-08T09:52:17.478Z,12.03
2022-12-08T09:55:36.728Z,18.00
2022-12-08T09:58:55.987Z,12.80
2022-12-08T10:02:11.195Z,13.48
2022-12-08T10:05:24.024Z,14.58
2022-12-08T10:08:43.534Z,13.00
2022-12-08T10:12:00.748Z,16.98
2022-12-08T10:15:24.049Z,13.73
2022-12-08T10:18:39.874Z,15.63
2022-12-08T10:21:52.027Z,16.65
2022-12-08T10:25:11.612Z,13.40
2022-12-08T10:28:23.635Z,15.10
2022-12-08T10:31:37.577Z,12.08
2022-12-08T10:35:08.951Z,12.63
2022-12-08T10:38:30.544Z,13.03
2022-12-08T10:41:42.322Z,15.28
2022-12-08T10:45:05.233Z,13.68
2022-12-08T10:48:23.613Z,16.85
2022-12-08T10:51:45.174Z,12.68
2022-12-08T10:55:00.562Z,14.15
2022-12-08T10:58:28.799Z,13.25
2022-12-08T11:01:46.124Z,11.45
2022-12-08T11:05:04.377Z,11.35
2022-12-08T11:08:17.642Z,16.88
2022-12-08T11:11:43.092Z,12.63
2022-12-08T11:15:03.740Z,12.53
2022-12-08T11:18:28.339Z,16.70
2022-12-08T11:21:43.201Z,14.08
2022-12-08T11:25:06.048Z,14.48
2022-12-08T11:28:18.321Z,13.75
2022-12-08T11:31:37.736Z,14.30
2022-12-08T11:34:55.262Z,14.55
2022-12-08T11:38:21.695Z,15.35
2022-12-08T11:41:31.903Z,15.20
2022-12-08T11:44:49.524Z,16.98
2022-12-08T11:48:08.278Z,13.33
2022-12-08T11:51:25.847Z,14.20
2022-12-08T11:54:43.782Z,16.58
2022-12-08T11:57:57.421Z,14.88
2022-12-08T12:01:09.866Z,15.30
2022-12-08T12:04:31.531Z,15.95
2022-12-08T12:08:01.989Z,18.43
2022-12-08T12:11:23.122Z,18.38
2022-12-08T12:14:54.581Z,19.60
2022-12-08T12:18:16.783Z,18.78
2022-12-08T12:21:30.445Z,15.55
2022-12-08T12:24:45.104Z,18.70
2022-12-08T12:28:00.598Z,16.38
2022-12-08T12:31:16.582Z,20.03
2022-12-08T12:34:31.957Z,18.33
2022-12-08T12:37:48.036Z,17.58
2022-12-08T12:41:07.230Z,23.25
2022-12-08T12:44:47.433Z,19.93
2022-12-08T12:48:19.529Z,17.03
2022-12-08T12:51:57.414Z,18.63
2022-12-08T12:58:48.979Z,17.13
2022-12-08T13:02:02.729Z,17.25
2022-12-08T13:05:22.161Z,13.88
2022-12-08T13:08:35.281Z,16.53
2022-12-08T13:12:00.074Z,16.80
2022-12-08T13:15:23.348Z,18.88
2022-12-08T13:18:39.988Z,16.68
2022-12-08T13:21:52.125Z,18.38
2022-12-08T13:25:36.812Z,19.38
2022-12-08T13:29:25.380Z,21.10
2022-12-08T13:33:17.638Z,19.83
2022-12-08T13:36:32.262Z,20.73
2022-12-08T13:39:51.466Z,17.97
2022-12-08T13:43:10.587Z,22.80
2022-12-08T13:47:09.329Z,20.00
2022-12-08T13:51:24.132Z,16.83
2022-12-08T13:53:41.962Z,17.88
2022-12-08T13:57:00.882Z,15.28
2022-12-08T13:59:40.342Z,13.50
2022-12-08T14:02:55.007Z,14.63
2022-12-08T14:06:13.024Z,14.88
2022-12-08T14:09:28.311Z,15.23
2022-12-08T14:12:40.751Z,16.28
2022-12-08T14:15:52.715Z,18.98
2022-12-08T14:19:16.024Z,24.18
2022-12-08T14:22:28.516Z,17.23
2022-12-08T14:25:41.491Z,16.23
2022-12-08T14:28:55.450Z,15.63
2022-12-08T14:32:07.693Z,18.98
2022-12-08T14:35:29.792Z,16.13
2022-12-08T14:38:41.743Z,17.13
2022-12-08T14:42:07.742Z,18.90
2022-12-08T14:45:22.570Z,16.23
2022-12-08T14:48:46.298Z,19.73
2022-12-08T14:51:58.392Z,15.58
2022-12-08T14:55:12.726Z,21.33
2022-12-08T14:58:32.100Z,16.50
2022-12-08T15:01:44.850Z,22.18
2022-12-08T15:05:01.285Z,20.70
2022-12-08T15:08:16.914Z,23.23
2022-12-08T15:11:40.423Z,24.23
2022-12-08T15:15:02.960Z,21.88
2022-12-08T15:18:22.117Z,18.45
2022-12-08T15:21:39.709Z,23.50
2022-12-08T15:24:52.618Z,22.93
2022-12-08T15:28:05.187Z,23.10
2022-12-08T15:31:19.669Z,20.80
2022-12-08T15:34:33.423Z,19.40
2022-12-08T15:37:46.874Z,19.68
2022-12-08T15:40:59.887Z,29.33
2022-12-08T15:44:12.280Z,24.93
2022-12-08T15:47:28.647Z,25.00
2022-12-08T15:50:40.685Z,22.15
2022-12-08T15:53:52.707Z,23.28
2022-12-08T15:57:22.212Z,21.43
2022-12-08T16:00:54.698Z,25.93
2022-12-08T16:07:21.532Z,21.98
2022-12-08T16:10:24.892Z,23.05
2022-12-08T16:14:08.082Z,27.60
2022-12-08T16:17:12.236Z,26.50
2022-12-08T16:20:44.039Z,28.70
2022-12-08T16:23:44.296Z,26.73
2022-12-08T16:30:10.084Z,22.18
2022-12-08T16:33:22.462Z,24.65
2022-12-08T16:36:34.432Z,21.85
2022-12-08T16:39:46.642Z,23.20
2022-12-08T16:42:58.601Z,26.43
2022-12-08T16:46:10.598Z,29.10
2022-12-08T16:49:22.518Z,27.15
2022-12-08T16:52:34.402Z,26.93
2022-12-08T16:55:51.334Z,23.08
2022-12-08T16:59:03.263Z,29.20
2022-12-08T17:02:16.693Z,27.95
2022-12-08T17:05:30.830Z,27.10
2022-12-08T17:08:43.112Z,32.58
2022-12-08T17:11:58.813Z,27.60
2022-12-08T17:15:11.168Z,28.48
2022-12-08T17:18:23.039Z,29.70
2022-12-08T17:21:35.589Z,32.43
2022-12-08T17:24:47.527Z,36.20
2022-12-08T17:28:00.331Z,31.08
2022-12-08T17:31:22.234Z,31.78
2022-12-08T17:34:35.079Z,38.65
2022-12-08T17:37:47.223Z,31.55
2022-12-08T17:40:59.083Z,35.43
2022-12-08T17:44:16.987Z,28.15
2022-12-08T17:47:29.161Z,33.83
2022-12-08T17:50:43.795Z,42.95
2022-12-08T17:53:55.669Z,37.13
2022-12-08T17:57:07.701Z,34.20
2022-12-08T18:00:21.844Z,48.25
2022-12-08T18:03:33.754Z,45.33
2022-12-08T18:06:46.997Z,48.73
2022-12-08T18:09:59.130Z,51.58
2022-12-08T18:13:11.942Z,64.23
2022-12-08T18:16:26.824Z,61.68
2022-12-08T18:19:38.783Z,65.53
2022-12-08T18:22:50.878Z,72.53
2022-12-08T18:26:02.903Z,63.55
2022-12-08T18:29:14.767Z,72.53
2022-12-08T18:32:26.920Z,60.10
2022-12-08T18:35:39.510Z,56.73
2022-12-08T18:38:51.600Z,55.23
2022-12-08T18:42:07.499Z,39.43
2022-12-08T18:45:22.543Z,38.35
2022-12-08T18:48:35.256Z,41.35
2022-12-08T18:51:47.993Z,39.03
2022-12-08T18:58:03.454Z,32.05
2022-12-08T19:01:19.509Z,35.73
2022-12-08T19:04:34.685Z,25.55
2022-12-08T19:07:46.690Z,21.35
2022-12-08T19:10:58.809Z,24.68
2022-12-08T19:14:10.897Z,22.23
2022-12-08T19:17:22.963Z,24.38
2022-12-08T19:20:35.744Z,27.65
2022-12-08T19:23:49.249Z,26.88
2022-12-08T19:27:01.330Z,25.45
2022-12-08T19:30:16.840Z,29.65
2022-12-08T19:33:28.758Z,35.63
2022-12-08T19:36:42.726Z,36.90
2022-12-08T19:40:09.465Z,28.83
2022-12-08T19:43:47.882Z,36.97
2022-12-08T19:46:59.972Z,37.28
2022-12-08T19:50:30.314Z,39.43
2022-12-08T19:53:47.345Z,41.15
2022-12-08T19:56:56.323Z,57.70
2022-12-08T20:00:09.266Z,37.25
2022-12-08T20:03:25.726Z,40.83
2022-12-08T20:06:38.284Z,38.35
2022-12-08T20:09:50.384Z,46.88
2022-12-08T20:13:13.372Z,40.18
2022-12-08T20:16:25.755Z,34.00
2022-12-08T20:19:37.907Z,38.70
2022-12-08T20:22:49.969Z,54.58
2022-12-08T20:26:02.120Z,39.58
2022-12-08T20:29:16.363Z,37.20
2022-12-08T20:32:28.450Z,37.38
2022-12-08T20:35:40.582Z,40.25
2022-12-08T20:38:53.959Z,38.58
2022-12-08T20:42:06.088Z,44.05
2022-12-08T20:45:18.392Z,41.95
2022-12-08T20:48:30.505Z,48.30
2022-12-08T20:51:42.772Z,46.00
2022-12-08T20:54:56.018Z,43.95
2022-12-08T20:58:08.262Z,54.88
2022-12-08T21:01:24.238Z,47.50
2022-12-08T21:04:36.533Z,45.40
2022-12-08T21:07:49.409Z,44.53
2022-12-08T21:11:04.753Z,43.30
2022-12-08T21:14:17.399Z,44.08
2022-12-08T21:17:29.650Z,47.75
2022-12-08T21:20:42.039Z,46.88
2022-12-08T21:23:54.189Z,48.65
2022-12-08T21:27:06.187Z,49.18
2022-12-08T21:30:21.167Z,48.65
2022-12-08T21:33:33.242Z,51.00
2022-12-08T21:36:45.459Z,60.33
2022-12-08T21:39:57.845Z,48.85
2022-12-08T21:43:10.161Z,45.35
2022-12-08T21:46:26.831Z,45.43
2022-12-08T21:49:40.462Z,43.27
2022-12-08T21:52:54.392Z,46.18
2022-12-08T21:56:06.434Z,39.28
2022-12-08T21:59:19.061Z,39.70
2022-12-08T22:02:31.491Z,39.03
2022-12-08T22:05:44.399Z,34.98
2022-12-08T22:08:56.354Z,33.00
2022-12-08T22:12:08.741Z,33.20
2022-12-08T22:15:21.132Z,36.65
2022-12-08T22:18:33.404Z,33.60
2022-12-08T22:21:47.368Z,34.33
2022-12-08T22:25:00.423Z,39.83
2022-12-08T22:28:13.353Z,31.35
2022-12-08T22:31:26.997Z,35.48
2022-12-08T22:34:39.369Z,38.05
2022-12-08T22:37:53.531Z,35.13
2022-12-08T22:41:05.817Z,33.98
2022-12-08T22:44:20.190Z,34.40
2022-12-08T22:47:32.398Z,36.35
2022-12-08T22:50:44.838Z,33.70
2022-12-08T22:53:58.082Z,40.85
2022-12-08T22:57:10.270Z,35.13
2022-12-08T23:00:24.639Z,39.75
2022-12-08T23:03:37.305Z,40.10
2022-12-08T23:06:49.477Z,39.40
2022-12-08T23:10:01.828Z,42.73
2022-12-08T23:13:14.336Z,44.28
2022-12-08T23:16:26.748Z,51.03
2022-12-08T23:19:41.317Z,48.00
2022-12-08T23:22:53.389Z,48.05
2022-12-08T23:26:05.681Z,45.55
2022-12-08T23:29:18.311Z,52.20
2022-12-08T23:32:30.871Z,49.40
2022-12-08T23:35:43.587Z,53.88
2022-12-08T23:38:56.523Z,54.88
2022-12-08T23:42:09.081Z,51.78
2022-12-08T23:45:21.681Z,49.83
2022-12-08T23:48:36.132Z,50.28
2022-12-08T23:51:48.728Z,57.28
2022-12-08T23:55:01.076Z,55.53
2022-12-08T23:58:13.205Z,56.95
